Time;durP1;ratioP1;P1;durP2;ratioP2;P2;SDS_P1;SDS_P2;PMS_P1;PMS_P2;Temp;Humidity;BMP_temperature;BMP_pressure;BME280_temperature;BME280_humidity;BME280_pressure;Samples;Min_cycle;Max_cycle;Signal;HPM_P1;HPM_P2
2022/07/20 00:00:47;;;;;;;11.05;3.13;;;26.20;63.90;;;;;;5025747;28;20065;-78
2022/07/20 00:03:13;;;;;;;6.43;2.78;;;26.10;64.00;;;;;;5009087;28;20472;-79
2022/07/20 00:05:41;;;;;;;5.05;2.83;;;26.10;64.20;;;;;;5005143;28;20133;-78
2022/07/20 00:08:06;;;;;;;9.25;2.80;;;26.00;64.20;;;;;;5012712;28;20132;-78
2022/07/20 00:13:16;;;;;;;9.98;2.95;;;25.90;64.30;;;;;;5000103;28;20638;-78
2022/07/20 00:15:43;;;;;;;4.93;2.63;;;25.90;64.60;;;;;;5008863;28;20049;-78
2022/07/20 00:18:09;;;;;;;4.53;3.00;;;25.80;64.70;;;;;;5006201;28;20502;-78
2022/07/20 00:20:35;;;;;;;6.68;2.70;;;25.80;65.20;;;;;;5021043;28;20070;-79
2022/07/20 00:23:01;;;;;;;5.05;2.90;;;25.70;64.80;;;;;;5007356;28;20030;-78
2022/07/20 00:25:27;;;;;;;9.05;2.95;;;25.70;64.80;;;;;;5024653;28;20045;-79
2022/07/20 00:27:53;;;;;;;7.22;3.08;;;25.60;65.00;;;;;;5007561;28;20479;-78
2022/07/20 00:30:19;;;;;;;5.25;2.88;;;25.60;65.70;;;;;;5012098;28;20038;-78
2022/07/20 00:32:44;;;;;;;4.93;2.95;;;25.50;65.10;;;;;;5004310;28;20037;-78
2022/07/20 00:35:13;;;;;;;5.32;3.10;;;25.50;65.00;;;;;;5013472;28;20040;-78
2022/07/20 00:37:39;;;;;;;4.82;2.92;;;25.40;65.70;;;;;;5015147;28;20085;-78
2022/07/20 00:40:06;;;;;;;5.68;2.85;;;25.30;66.50;;;;;;5010417;28;20555;-78
2022/07/20 00:42:34;;;;;;;10.05;3.13;;;25.30;66.60;;;;;;5013806;28;20050;-79
2022/07/20 00:45:00;;;;;;;3.90;2.80;;;25.20;66.30;;;;;;5012142;28;20044;-78
2022/07/20 00:47:25;;;;;;;5.30;2.92;;;25.20;66.40;;;;;;5016831;28;20429;-78
2022/07/20 00:49:51;;;;;;;6.95;3.47;;;25.10;67.30;;;;;;5022684;28;20042;-78
2022/07/20 00:52:16;;;;;;;4.18;3.03;;;25.00;67.70;;;;;;5025081;28;20041;-78
2022/07/20 00:54:45;;;;;;;5.78;3.17;;;24.90;68.00;;;;;;5005838;28;20037;-78
2022/07/20 00:57:11;;;;;;;5.68;2.90;;;24.90;67.70;;;;;;5025997;28;20038;-78
2022/07/20 00:59:36;;;;;;;4.32;2.90;;;24.80;67.60;;;;;;5006270;28;20101;-78
2022/07/20 01:02:02;;;;;;;3.75;2.78;;;24.80;67.80;;;;;;5004255;28;20113;-78
2022/07/20 01:04:27;;;;;;;4.97;2.92;;;24.70;68.50;;;;;;5007887;28;20037;-78
2022/07/20 01:06:53;;;;;;;8.13;3.20;;;24.60;68.60;;;;;;5011925;28;20412;-78
2022/07/20 01:09:20;;;;;;;4.68;3.00;;;24.60;68.20;;;;;;5022408;28;20038;-78
2022/07/20 01:11:46;;;;;;;6.53;3.20;;;24.50;68.70;;;;;;5008332;28;20595;-78
2022/07/20 01:14:12;;;;;;;6.72;3.05;;;24.40;69.10;;;;;;5018362;28;20043;-78
2022/07/20 01:16:38;;;;;;;6.18;3.40;;;24.40;69.00;;;;;;5007687;28;20049;-78
2022/07/20 01:19:05;;;;;;;7.30;3.13;;;24.30;69.20;;;;;;5006631;28;20038;-78
2022/07/20 01:21:31;;;;;;;6.07;3.17;;;24.30;69.70;;;;;;4998840;28;20497;-78
2022/07/20 01:23:56;;;;;;;6.93;3.08;;;24.10;70.00;;;;;;5009535;28;20053;-78
2022/07/20 01:26:22;;;;;;;6.40;3.08;;;24.10;70.10;;;;;;5025204;28;20045;-79
2022/07/20 01:28:48;;;;;;;5.07;3.10;;;24.00;70.20;;;;;;5015517;28;20193;-78
2022/07/20 01:31:14;;;;;;;7.10;3.13;;;24.00;70.20;;;;;;5013077;28;20491;-78
2022/07/20 01:33:40;;;;;;;7.22;3.25;;;24.00;70.20;;;;;;5008381;28;20117;-78
2022/07/20 01:36:06;;;;;;;6.03;3.00;;;23.90;70.20;;;;;;5009531;28;20113;-78
2022/07/20 01:38:31;;;;;;;7.45;3.47;;;23.90;70.60;;;;;;5001534;28;20041;-78
2022/07/20 01:40:58;;;;;;;4.80;3.33;;;23.90;70.00;;;;;;5009465;28;20121;-78
2022/07/20 01:43:23;;;;;;;6.30;3.40;;;23.90;69.80;;;;;;5028725;28;20495;-78
2022/07/20 01:45:49;;;;;;;7.82;3.10;;;23.90;70.20;;;;;;5020179;28;20037;-78
2022/07/20 01:48:14;;;;;;;7.72;3.35;;;23.90;70.50;;;;;;5008106;28;20042;-78
2022/07/20 01:50:40;;;;;;;6.43;3.17;;;23.80;70.70;;;;;;5015828;28;20125;-78
2022/07/20 01:53:06;;;;;;;5.88;3.45;;;23.80;71.10;;;;;;5030892;28;20069;-78
2022/07/20 01:55:32;;;;;;;8.68;3.40;;;23.70;71.70;;;;;;5002806;28;20498;-78
2022/07/20 01:57:58;;;;;;;4.85;3.25;;;23.70;70.60;;;;;;5023847;28;20065;-78
2022/07/20 02:00:24;;;;;;;8.75;3.55;;;23.70;70.40;;;;;;5008582;28;20042;-78
2022/07/20 02:02:50;;;;;;;8.70;3.20;;;23.60;70.50;;;;;;5016409;28;20117;-78
2022/07/20 02:05:17;;;;;;;6.10;3.53;;;23.60;70.80;;;;;;5008089;28;20060;-78
2022/07/20 02:07:44;;;;;;;5.25;3.10;;;23.50;70.60;;;;;;5021597;28;20041;-78
2022/07/20 02:10:11;;;;;;;5.25;3.28;;;23.50;70.70;;;;;;5003522;28;20034;-78
2022/07/20 02:12:37;;;;;;;5.05;3.35;;;23.50;70.70;;;;;;5034014;28;20053;-79
2022/07/20 02:15:09;;;;;;;7.78;3.35;;;23.50;70.50;;;;;;4995896;28;20513;-78
2022/07/20 02:17:35;;;;;;;6.50;3.50;;;23.50;70.40;;;;;;5000798;28;20473;-78
2022/07/20 02:20:01;;;;;;;7.20;3.13;;;23.40;70.00;;;;;;5007767;28;20069;-78
2022/07/20 02:22:27;;;;;;;4.75;3.45;;;23.50;70.70;;;;;;5011493;28;20050;-78
2022/07/20 02:24:53;;;;;;;7.00;3.33;;;23.40;70.00;;;;;;5018846;28;20078;-78
2022/07/20 02:27:18;;;;;;;6.75;3.08;;;23.40;70.60;;;;;;5009012;28;20515;-78
2022/07/20 02:29:44;;;;;;;4.80;3.30;;;23.30;70.60;;;;;;4993129;28;20046;-78
2022/07/20 02:32:10;;;;;;;6.85;3.28;;;23.30;70.60;;;;;;5006815;28;20117;-79
2022/07/20 02:34:35;;;;;;;5.32;3.25;;;23.30;70.30;;;;;;5000028;28;20048;-78
2022/07/20 02:37:01;;;;;;;4.97;3.47;;;23.30;70.10;;;;;;5007951;28;20034;-78
2022/07/20 02:39:26;;;;;;;5.75;3.30;;;23.30;70.10;;;;;;5011540;28;20080;-78
2022/07/20 02:41:52;;;;;;;6.72;3.33;;;23.30;70.10;;;;;;5023284;28;20034;-79
2022/07/20 02:44:18;;;;;;;8.95;3.20;;;23.20;70.20;;;;;;5004603;28;21581;-79
2022/07/20 02:46:43;;;;;;;6.82;3.25;;;23.30;70.30;;;;;;5008200;28;20549;-78
2022/07/20 02:49:09;;;;;;;6.07;3.20;;;23.20;70.40;;;;;;5007098;28;20549;-79
2022/07/20 02:51:34;;;;;;;7.57;3.40;;;23.20;70.50;;;;;;4997585;28;20064;-79
2022/07/20 02:54:00;;;;;;;10.43;3.45;;;23.20;71.30;;;;;;5005917;28;20499;-78
2022/07/20 02:56:25;;;;;;;4.60;3.45;;;23.10;70.40;;;;;;5004449;28;20504;-78
2022/07/20 02:58:51;;;;;;;6.32;3.50;;;23.10;70.70;;;;;;4996523;28;20038;-78
2022/07/20 03:01:16;;;;;;;8.05;3.30;;;23.00;70.80;;;;;;5020840;28;20042;-78
2022/07/20 03:03:42;;;;;;;8.43;3.50;;;22.90;71.20;;;;;;5006017;28;20041;-79
2022/07/20 03:06:08;;;;;;;9.48;3.63;;;22.80;71.90;;;;;;5021937;28;20033;-78
2022/07/20 03:08:34;;;;;;;8.23;3.15;;;22.80;71.60;;;;;;5006399;28;20124;-79
2022/07/20 03:11:00;;;;;;;5.43;3.35;;;22.80;71.70;;;;;;5008104;28;20123;-79
2022/07/20 03:13:26;;;;;;;6.18;3.30;;;22.80;72.30;;;;;;5009374;28;20267;-78
2022/07/20 03:15:51;;;;;;;8.52;3.40;;;22.70;71.70;;;;;;5006155;28;20060;-78
2022/07/20 03:18:17;;;;;;;5.65;3.25;;;22.70;73.00;;;;;;5020931;28;20027;-79
2022/07/20 03:20:42;;;;;;;7.32;3.47;;;22.60;72.60;;;;;;5002381;28;20073;-79
2022/07/20 03:23:08;;;;;;;5.30;3.30;;;22.60;72.20;;;;;;5018763;28;20040;-79
2022/07/20 03:25:33;;;;;;;6.00;3.50;;;22.60;71.60;;;;;;5012268;28;20381;-79
2022/07/20 03:28:00;;;;;;;5.75;3.30;;;22.70;71.60;;;;;;5012181;28;20083;-79
2022/07/20 03:30:26;;;;;;;6.32;3.38;;;22.60;71.70;;;;;;5022998;28;20038;-78
2022/07/20 03:32:53;;;;;;;5.13;3.47;;;22.60;71.50;;;;;;5016599;28;20034;-78
2022/07/20 03:35:19;;;;;;;8.63;3.70;;;22.60;71.50;;;;;;5024919;28;20077;-79
2022/07/20 03:37:45;;;;;;;8.38;3.42;;;22.70;71.00;;;;;;5012056;28;20034;-78
2022/07/20 03:40:11;;;;;;;5.82;3.60;;;22.70;71.20;;;;;;5007397;28;20125;-78
2022/07/20 03:42:37;;;;;;;4.97;3.42;;;22.70;71.00;;;;;;5006654;28;20427;-79
2022/07/20 03:45:03;;;;;;;7.78;3.80;;;22.60;71.00;;;;;;5004552;28;20037;-78
2022/07/20 03:47:29;;;;;;;4.95;3.15;;;22.60;71.00;;;;;;5007000;28;20501;-78
2022/07/20 03:49:55;;;;;;;7.45;3.60;;;22.60;70.90;;;;;;5011325;28;20041;-79
2022/07/20 03:52:21;;;;;;;7.60;3.60;;;22.60;71.00;;;;;;5022279;28;20045;-79
2022/07/20 03:54:47;;;;;;;6.13;3.70;;;22.60;71.50;;;;;;5016056;28;20185;-79
2022/07/20 03:57:12;;;;;;;6.40;3.63;;;22.60;71.30;;;;;;5006879;28;20089;-79
2022/07/20 03:59:38;;;;;;;5.53;3.20;;;22.60;71.10;;;;;;5025169;28;20066;-78
2022/07/20 04:02:04;;;;;;;12.10;3.78;;;22.60;71.00;;;;;;5001992;28;20093;-79
2022/07/20 04:04:30;;;;;;;11.82;3.92;;;22.60;70.80;;;;;;5003965;28;20026;-78
2022/07/20 04:06:56;;;;;;;13.15;3.70;;;22.60;71.20;;;;;;5002689;28;20044;-78
2022/07/20 04:12:09;;;;;;;11.43;3.80;;;22.60;72.20;;;;;;5003955;28;20415;-79
2022/07/20 04:14:34;;;;;;;6.00;3.55;;;22.60;72.40;;;;;;5010001;28;20037;-79
2022/07/20 04:17:00;;;;;;;7.03;3.53;;;22.50;72.30;;;;;;5014067;28;20072;-78
2022/07/20 04:19:26;;;;;;;6.97;3.65;;;22.60;72.20;;;;;;5002614;28;20038;-79
2022/07/20 04:21:56;;;;;;;9.55;3.72;;;22.60;72.10;;;;;;5008304;28;20049;-78
2022/07/20 04:24:23;;;;;;;4.80;3.13;;;22.60;72.70;;;;;;5001248;28;20034;-78
2022/07/20 04:26:48;;;;;;;7.13;3.35;;;22.60;72.80;;;;;;5004492;28;20120;-78
2022/07/20 04:29:14;;;;;;;8.48;3.45;;;22.70;73.40;;;;;;5021076;28;20061;-78
2022/07/20 04:31:39;;;;;;;7.80;3.63;;;22.70;72.90;;;;;;5019683;28;20069;-78
2022/07/20 04:34:05;;;;;;;5.72;3.30;;;22.70;72.80;;;;;;5001231;28;20548;-79
2022/07/20 04:36:31;;;;;;;6.13;3.45;;;22.70;72.60;;;;;;5016491;28;20041;-79
2022/07/20 04:38:56;;;;;;;5.40;3.90;;;22.80;72.40;;;;;;5010193;28;20041;-79
2022/07/20 04:41:22;;;;;;;5.00;3.75;;;22.80;71.90;;;;;;5005786;28;20144;-78
2022/07/20 04:43:47;;;;;;;7.00;3.78;;;22.90;72.00;;;;;;5018859;28;20041;-78
2022/07/20 04:46:13;;;;;;;9.30;3.83;;;22.90;72.00;;;;;;5003655;28;20124;-78
2022/07/20 04:48:38;;;;;;;6.63;3.78;;;23.00;72.20;;;;;;5004698;28;20132;-78
2022/07/20 04:51:04;;;;;;;8.27;3.60;;;23.00;72.10;;;;;;5008851;28;20385;-79
2022/07/20 04:53:30;;;;;;;6.70;3.50;;;23.10;71.70;;;;;;5002976;28;20073;-78
2022/07/20 04:55:55;;;;;;;5.22;3.55;;;23.10;71.30;;;;;;5017442;28;20030;-78
2022/07/20 04:58:21;;;;;;;6.45;4.00;;;23.20;72.10;;;;;;5019434;28;20034;-78
2022/07/20 05:00:46;;;;;;;6.50;3.38;;;23.30;71.10;;;;;;5005381;28;20056;-78
2022/07/20 05:03:12;;;;;;;5.32;3.88;;;23.30;71.40;;;;;;5021341;28;20042;-78
2022/07/20 05:05:37;;;;;;;7.45;3.70;;;23.40;71.50;;;;;;5013922;28;20033;-78
2022/07/20 05:08:03;;;;;;;8.23;3.58;;;23.40;71.00;;;;;;5027845;28;20026;-78
2022/07/20 05:10:29;;;;;;;6.55;3.70;;;23.50;71.10;;;;;;5006387;28;20026;-78
2022/07/20 05:12:55;;;;;;;7.10;3.47;;;23.50;71.10;;;;;;5005555;28;20073;-78
2022/07/20 05:15:23;;;;;;;6.35;3.88;;;23.60;70.90;;;;;;4985999;28;20065;-78
2022/07/20 05:17:49;;;;;;;9.07;3.70;;;23.60;70.80;;;;;;5003581;28;20114;-78
2022/07/20 05:20:15;;;;;;;7.28;4.35;;;23.70;71.20;;;;;;5008292;28;20046;-77
2022/07/20 05:22:40;;;;;;;6.05;3.90;;;23.80;71.40;;;;;;4997391;28;20692;-78
2022/07/20 05:25:06;;;;;;;9.15;4.00;;;23.80;71.00;;;;;;5006217;28;20091;-78
2022/07/20 05:27:32;;;;;;;6.25;3.47;;;23.90;70.90;;;;;;4999729;28;20077;-77
2022/07/20 05:29:57;;;;;;;10.85;4.03;;;24.00;70.90;;;;;;5001263;28;20048;-77
2022/07/20 05:32:23;;;;;;;5.65;3.80;;;24.00;71.00;;;;;;5004694;28;20046;-77
2022/07/20 05:34:48;;;;;;;6.47;4.10;;;24.10;70.60;;;;;;4993304;28;20397;-78
2022/07/20 05:37:14;;;;;;;8.43;3.70;;;24.20;70.80;;;;;;5008672;28;20033;-78
2022/07/20 05:39:39;;;;;;;8.85;4.00;;;24.30;71.10;;;;;;5026770;28;20038;-77
2022/07/20 05:42:05;;;;;;;6.88;4.18;;;24.40;70.90;;;;;;5003989;28;20034;-79
2022/07/20 05:44:30;;;;;;;7.53;3.95;;;24.40;70.60;;;;;;5016128;28;20045;-79
2022/07/20 05:46:56;;;;;;;6.68;3.72;;;24.50;70.40;;;;;;5009023;28;20045;-78
2022/07/20 05:49:22;;;;;;;8.68;4.00;;;24.60;70.60;;;;;;5013782;28;20069;-78
2022/07/20 05:51:48;;;;;;;6.25;3.78;;;24.60;70.50;;;;;;4995756;28;20054;-79
2022/07/20 05:54:14;;;;;;;6.38;3.90;;;24.70;70.60;;;;;;5007417;28;20037;-79
2022/07/20 05:56:39;;;;;;;5.53;4.05;;;24.80;70.60;;;;;;5003956;28;20037;-78
2022/07/20 05:59:05;;;;;;;5.63;3.65;;;24.90;70.50;;;;;;5009417;28;20038;-78
2022/07/20 06:01:30;;;;;;;6.05;4.05;;;25.00;70.50;;;;;;5014707;28;20037;-78
2022/07/20 06:03:56;;;;;;;6.70;3.85;;;25.00;70.70;;;;;;5002118;28;20125;-78
2022/07/20 06:06:21;;;;;;;7.45;3.88;;;25.20;70.60;;;;;;4996890;28;20448;-78
2022/07/20 06:08:47;;;;;;;8.05;3.63;;;25.20;71.00;;;;;;5015424;28;20494;-79
2022/07/20 06:11:12;;;;;;;7.20;3.63;;;25.40;71.40;;;;;;5006566;28;20066;-79
2022/07/20 06:13:38;;;;;;;7.05;3.53;;;25.50;71.40;;;;;;5021692;28;20505;-78
2022/07/20 06:16:05;;;;;;;6.38;3.75;;;25.60;71.30;;;;;;4994164;28;20582;-79
2022/07/20 06:18:30;;;;;;;5.95;3.92;;;25.70;71.10;;;;;;4997507;28;20040;-79
2022/07/20 06:20:56;;;;;;;6.88;3.88;;;25.70;70.70;;;;;;5015694;28;20451;-79
2022/07/20 06:23:21;;;;;;;5.38;3.80;;;25.80;70.40;;;;;;5005239;28;20042;-77
2022/07/20 06:25:47;;;;;;;10.77;3.90;;;25.90;70.50;;;;;;5013716;28;20050;-79
2022/07/20 06:28:12;;;;;;;8.40;4.10;;;26.00;69.90;;;;;;5008707;28;20495;-78
2022/07/20 06:30:38;;;;;;;7.85;4.35;;;26.20;69.70;;;;;;5007986;28;20456;-79
2022/07/20 06:33:03;;;;;;;6.03;3.92;;;26.30;70.10;;;;;;4999684;28;20565;-79
2022/07/20 06:35:29;;;;;;;6.80;3.95;;;26.50;70.90;;;;;;5007679;28;20042;-79
2022/07/20 06:37:56;;;;;;;13.57;3.78;;;26.50;69.50;;;;;;4996906;28;20038;-78
2022/07/20 06:40:22;;;;;;;7.45;4.07;;;26.60;69.30;;;;;;5003710;28;20042;-78
2022/07/20 06:42:47;;;;;;;6.13;4.20;;;26.80;69.50;;;;;;5015456;28;20050;-79
2022/07/20 06:45:13;;;;;;;8.32;3.92;;;26.80;69.20;;;;;;4997714;28;20121;-79
2022/07/20 06:47:38;;;;;;;10.93;4.00;;;27.00;68.90;;;;;;5009050;28;20042;-79
2022/07/20 06:50:04;;;;;;;8.18;4.15;;;27.00;68.60;;;;;;5017565;28;20065;-79
2022/07/20 06:52:31;;;;;;;8.68;4.50;;;27.20;68.50;;;;;;5003501;28;20093;-79
2022/07/20 06:54:57;;;;;;;8.93;4.28;;;27.30;68.20;;;;;;5002575;28;20064;-79
2022/07/20 06:57:22;;;;;;;8.20;4.32;;;27.30;67.70;;;;;;5008040;28;20042;-79
2022/07/20 06:59:49;;;;;;;6.63;4.13;;;27.40;67.20;;;;;;4992958;28;20115;-79
2022/07/20 07:02:14;;;;;;;8.38;3.92;;;27.50;67.50;;;;;;5014705;28;20093;-79
2022/07/20 07:04:40;;;;;;;7.13;4.00;;;27.50;67.10;;;;;;5014573;28;20457;-79
2022/07/20 07:07:06;;;;;;;7.10;4.18;;;27.60;67.70;;;;;;5015071;28;20108;-79
2022/07/20 07:09:31;;;;;;;7.40;4.18;;;27.60;67.70;;;;;;5015069;28;20097;-79
2022/07/20 07:11:57;;;;;;;9.77;4.38;;;27.70;67.70;;;;;;5016452;28;20046;-80
2022/07/20 07:14:22;;;;;;;8.82;4.32;;;27.70;67.60;;;;;;5010273;28;20041;-80
2022/07/20 07:16:48;;;;;;;7.32;4.70;;;27.80;67.70;;;;;;5008600;28;20113;-80
2022/07/20 07:19:14;;;;;;;10.80;4.40;;;27.90;67.70;;;;;;4981658;28;20117;-79
2022/07/20 07:21:39;;;;;;;6.00;4.32;;;27.90;67.60;;;;;;4995635;28;20108;-80
2022/07/20 07:24:05;;;;;;;8.48;5.00;;;28.00;68.10;;;;;;4993019;28;20173;-79
2022/07/20 07:26:30;;;;;;;11.88;5.35;;;28.00;68.30;;;;;;5011472;28;20073;-79
2022/07/20 07:28:56;;;;;;;10.45;5.35;;;28.10;68.40;;;;;;5012144;28;20053;-80
2022/07/20 07:31:22;;;;;;;9.13;5.32;;;28.20;68.70;;;;;;5015790;28;20102;-79
2022/07/20 07:33:47;;;;;;;9.73;5.20;;;28.20;68.70;;;;;;4999025;28;20046;-79
2022/07/20 07:36:13;;;;;;;9.48;5.70;;;28.30;69.20;;;;;;5015947;28;20034;-79
2022/07/20 07:38:39;;;;;;;10.20;6.18;;;28.40;69.60;;;;;;5017060;28;20500;-79
2022/07/20 07:41:05;;;;;;;11.20;5.72;;;28.50;69.90;;;;;;5016546;28;20068;-80
2022/07/20 07:43:30;;;;;;;11.90;6.18;;;28.60;69.90;;;;;;5015637;28;20037;-80
2022/07/20 07:45:56;;;;;;;10.27;6.18;;;28.60;69.80;;;;;;5015629;28;20416;-80
2022/07/20 07:48:21;;;;;;;9.82;5.90;;;28.60;69.90;;;;;;5015938;28;20041;-80
2022/07/20 07:50:47;;;;;;;14.05;6.43;;;28.70;70.60;;;;;;5015368;28;20068;-78
2022/07/20 07:53:13;;;;;;;8.77;6.00;;;28.80;70.90;;;;;;5015927;28;20041;-78
2022/07/20 07:55:39;;;;;;;13.23;7.15;;;28.90;71.00;;;;;;5011557;28;20038;-78
2022/07/20 07:58:09;;;;;;;11.68;7.35;;;28.90;71.80;;;;;;4995020;28;20103;-80
2022/07/20 08:00:36;;;;;;;13.30;7.88;;;28.90;72.20;;;;;;4996387;28;20040;-78
2022/07/20 08:03:02;;;;;;;11.90;8.13;;;29.00;72.00;;;;;;5003665;28;20064;-79
2022/07/20 08:05:28;;;;;;;12.30;7.70;;;29.00;72.10;;;;;;5015109;28;20092;-79
2022/07/20 08:07:54;;;;;;;13.32;8.00;;;29.10;72.80;;;;;;4998731;28;20098;-79
2022/07/20 08:10:19;;;;;;;13.95;8.70;;;29.10;73.20;;;;;;5003568;28;20441;-76
2022/07/20 08:12:46;;;;;;;12.50;8.60;;;29.10;73.90;;;;;;5009759;28;20034;-78
2022/07/20 08:15:12;;;;;;;10.55;8.38;;;29.20;74.00;;;;;;5002632;28;20065;-76
2022/07/20 08:17:38;;;;;;;14.15;8.80;;;29.30;74.00;;;;;;4987929;28;20034;-76
2022/07/20 08:20:06;;;;;;;14.88;9.95;;;29.30;74.40;;;;;;4991752;28;20064;-76
2022/07/20 08:22:32;;;;;;;17.70;9.80;;;29.30;74.60;;;;;;4990711;28;20509;-76
2022/07/20 08:24:58;;;;;;;16.45;10.40;;;29.30;74.60;;;;;;4987934;28;20039;-76
2022/07/20 08:27:24;;;;;;;17.85;10.52;;;29.40;74.60;;;;;;4988300;28;20432;-76
2022/07/20 08:29:49;;;;;;;15.35;10.50;;;29.40;75.00;;;;;;4988756;28;20046;-75
2022/07/20 08:32:15;;;;;;;17.50;11.05;;;29.50;75.50;;;;;;5007094;28;20457;-76
2022/07/20 08:34:41;;;;;;;18.48;11.43;;;29.60;75.90;;;;;;5016689;28;20042;-75
2022/07/20 08:37:07;;;;;;;17.33;12.18;;;29.60;76.00;;;;;;5009319;28;20064;-76
2022/07/20 08:39:32;;;;;;;16.15;12.38;;;29.60;76.50;;;;;;4999103;28;20038;-75
2022/07/20 08:41:58;;;;;;;18.30;12.85;;;29.50;76.80;;;;;;4990207;28;20030;-75
2022/07/20 08:44:24;;;;;;;20.42;13.23;;;29.50;77.10;;;;;;5002135;28;20052;-75
2022/07/20 08:46:50;;;;;;;19.35;13.80;;;29.50;78.20;;;;;;4998742;28;20646;-75
2022/07/20 08:49:16;;;;;;;23.67;15.57;;;29.50;78.70;;;;;;4993779;28;20042;-75
2022/07/20 08:51:42;;;;;;;22.58;15.65;;;29.40;79.00;;;;;;5010005;28;20550;-74
2022/07/20 08:54:08;;;;;;;19.50;15.93;;;29.40;78.70;;;;;;4992909;28;20153;-74
2022/07/20 08:56:34;;;;;;;25.80;16.15;;;29.40;78.90;;;;;;4993064;28;20050;-74
2022/07/20 08:59:00;;;;;;;21.40;15.63;;;29.30;79.00;;;;;;5009864;28;20039;-74
2022/07/20 09:01:26;;;;;;;22.55;16.90;;;29.40;79.80;;;;;;5002990;28;20041;-74
2022/07/20 09:04:10;;;;;;;22.45;16.40;;;29.30;80.00;;;;;;4981002;28;20070;-74
2022/07/20 09:06:48;;;;;;;25.77;17.20;;;29.40;80.60;;;;;;4999982;28;20081;-73
2022/07/20 09:09:14;;;;;;;25.30;17.60;;;29.40;80.30;;;;;;5007449;28;20072;-74
2022/07/20 09:11:40;;;;;;;20.83;17.55;;;29.50;80.50;;;;;;4993354;28;20117;-74
2022/07/20 09:14:05;;;;;;;23.15;17.27;;;29.50;80.20;;;;;;5008795;28;20500;-73
2022/07/20 09:16:40;;;;;;;25.08;17.30;;;29.50;80.60;;;;;;5003206;28;20044;-74
2022/07/20 09:19:06;;;;;;;27.30;17.67;;;29.60;80.50;;;;;;5012528;28;20046;-74
2022/07/20 09:21:33;;;;;;;29.77;19.15;;;29.60;81.10;;;;;;5022078;28;20096;-74
2022/07/20 09:24:03;;;;;;;26.55;18.70;;;29.60;80.70;;;;;;5008843;28;20125;-74
2022/07/20 09:26:29;;;;;;;22.85;18.17;;;29.60;80.50;;;;;;4993210;28;20451;-74
2022/07/20 09:28:57;;;;;;;26.40;18.67;;;29.50;80.80;;;;;;5004796;28;20050;-74
2022/07/20 09:31:30;;;;;;;29.50;18.83;;;29.50;81.10;;;;;;4994956;28;20038;-74
2022/07/20 09:34:13;;;;;;;30.73;18.48;;;29.50;81.00;;;;;;5003163;28;20081;-75
2022/07/20 09:36:44;;;;;;;28.00;18.88;;;29.50;81.90;;;;;;4993369;28;20049;-75
2022/07/20 09:39:15;;;;;;;26.33;18.73;;;29.50;81.30;;;;;;4992835;28;20117;-74
2022/07/20 09:41:56;;;;;;;33.92;18.25;;;29.60;81.30;;;;;;4993027;28;20049;-75
2022/07/20 09:44:25;;;;;;;26.90;18.80;;;29.50;81.20;;;;;;4991974;28;20125;-76
2022/07/20 09:46:51;;;;;;;27.02;18.20;;;29.50;81.10;;;;;;4992891;28;20372;-77
2022/07/20 09:49:17;;;;;;;24.80;18.10;;;29.40;80.70;;;;;;4999902;28;20052;-73
2022/07/20 09:51:47;;;;;;;21.63;18.02;;;29.40;80.70;;;;;;5010907;28;20642;-75
2022/07/20 09:54:15;;;;;;;25.58;18.50;;;29.30;80.20;;;;;;4994031;28;20048;-73
2022/07/20 09:56:43;;;;;;;26.45;18.80;;;29.30;81.10;;;;;;5006209;28;20133;-72
2022/07/20 09:59:13;;;;;;;26.33;18.63;;;29.30;81.40;;;;;;4996546;28;20506;-73
2022/07/20 10:01:44;;;;;;;24.77;18.88;;;29.50;81.30;;;;;;5012566;28;20044;-73
2022/07/20 10:04:10;;;;;;;20.95;17.48;;;29.60;80.00;;;;;;5000836;28;20396;-73
2022/07/20 10:06:38;;;;;;;24.88;17.90;;;29.60;78.80;;;;;;4996256;28;20053;-73
2022/07/20 10:09:05;;;;;;;22.02;18.13;;;29.70;79.70;;;;;;4988350;28;20489;-73
2022/07/20 10:11:32;;;;;;;23.35;16.48;;;29.90;79.90;;;;;;4998998;28;20064;-73
2022/07/20 10:14:01;;;;;;;24.80;16.95;;;29.90;78.50;;;;;;5002196;28;20042;-73
2022/07/20 10:16:44;;;;;;;23.80;16.35;;;30.00;77.50;;;;;;5017731;28;20121;-74
2022/07/20 10:19:10;;;;;;;23.90;16.20;;;29.90;76.90;;;;;;5011453;28;20427;-73
2022/07/20 10:21:47;;;;;;;20.17;15.63;;;30.00;77.50;;;;;;5005498;28;20575;-73
2022/07/20 10:24:17;;;;;;;21.50;15.75;;;30.10;77.00;;;;;;5002879;28;20038;-74
2022/07/20 10:26:44;;;;;;;17.50;15.45;;;30.10;76.70;;;;;;5011681;28;20042;-73
2022/07/20 10:29:09;;;;;;;22.63;15.13;;;30.10;76.60;;;;;;5011728;28;20041;-73
2022/07/20 10:31:49;;;;;;;19.70;14.85;;;30.10;76.10;;;;;;5008161;28;20038;-73
2022/07/20 10:34:47;;;;;;;19.80;14.48;;;30.10;75.20;;;;;;5001968;28;20042;-73
2022/07/20 10:37:27;;;;;;;19.85;13.88;;;30.10;75.70;;;;;;5017253;28;20068;-73
2022/07/20 10:40:09;;;;;;;16.90;13.23;;;30.20;75.40;;;;;;4991744;28;20069;-74
2022/07/20 10:42:37;;;;;;;19.73;12.60;;;30.20;75.10;;;;;;4991810;28;20042;-75
2022/07/20 10:45:23;;;;;;;19.65;11.43;;;30.10;74.40;;;;;;4997190;28;20103;-73
2022/07/20 10:48:01;;;;;;;15.95;10.43;;;30.30;74.00;;;;;;4995460;28;20409;-75
2022/07/20 10:50:36;;;;;;;18.42;10.30;;;30.10;72.70;;;;;;5003286;28;20069;-73
2022/07/20 10:53:11;;;;;;;15.80;10.30;;;30.00;71.40;;;;;;5013526;28;20125;-73
2022/07/20 10:55:36;;;;;;;14.68;10.27;;;29.90;71.50;;;;;;5000119;28;20057;-74
2022/07/20 10:58:11;;;;;;;19.13;11.05;;;29.90;72.90;;;;;;5002344;28;20378;-75
2022/07/20 11:00:52;;;;;;;18.40;10.27;;;29.80;74.00;;;;;;5019081;28;20492;-76
2022/07/20 11:03:27;;;;;;;23.80;10.30;;;29.60;72.00;;;;;;5005034;28;20164;-75
2022/07/20 11:06:29;;;;;;;13.73;9.98;;;29.60;73.50;;;;;;4994485;28;20046;-75
2022/07/20 11:08:56;;;;;;;14.48;9.70;;;29.90;74.10;;;;;;4930001;29;20039;-74
2022/07/20 11:11:25;;;;;;;16.63;10.38;;;30.20;74.40;;;;;;4987021;28;20046;-75
2022/07/20 11:13:52;;;;;;;14.80;9.65;;;30.20;73.20;;;;;;5004735;28;20559;-74
2022/07/20 11:16:23;;;;;;;16.25;9.70;;;30.30;73.70;;;;;;4995904;28;20038;-77
2022/07/20 11:18:50;;;;;;;15.45;9.82;;;30.50;73.80;;;;;;5001649;28;20497;-78
2022/07/20 11:21:16;;;;;;;13.98;9.38;;;30.60;73.00;;;;;;4999037;28;20105;-77
2022/07/20 11:23:50;;;;;;;14.70;9.82;;;30.70;73.20;;;;;;5015604;28;20125;-78
2022/07/20 11:26:17;;;;;;;13.88;9.00;;;30.80;72.40;;;;;;4999072;28;20038;-74
2022/07/20 11:28:51;;;;;;;12.93;8.82;;;30.90;72.90;;;;;;4992882;28;20065;-78
2022/07/20 11:31:20;;;;;;;15.27;9.60;;;31.00;71.80;;;;;;4994708;28;20034;-77
2022/07/20 11:33:47;;;;;;;12.65;9.38;;;31.00;71.80;;;;;;4986955;28;20048;-78
2022/07/20 11:36:19;;;;;;;13.20;9.75;;;30.90;71.20;;;;;;5002596;28;20043;-74
2022/07/20 11:38:49;;;;;;;13.82;9.93;;;30.90;71.80;;;;;;4998696;28;20116;-74
2022/07/20 11:41:21;;;;;;;14.73;10.05;;;31.00;72.10;;;;;;4992142;28;20042;-76
2022/07/20 11:43:47;;;;;;;13.40;9.70;;;31.10;71.50;;;;;;4995449;28;20535;-75
2022/07/20 11:46:28;;;;;;;18.38;9.70;;;31.20;70.70;;;;;;4992527;28;20044;-75
2022/07/20 11:49:00;;;;;;;15.65;10.20;;;31.40;71.90;;;;;;4995422;28;20038;-75
2022/07/20 11:51:31;;;;;;;13.98;9.50;;;31.70;71.90;;;;;;4996028;28;20054;-75
2022/07/20 11:53:57;;;;;;;19.75;9.05;;;31.60;70.10;;;;;;5010016;28;20049;-75
2022/07/20 11:56:25;;;;;;;16.45;8.98;;;31.70;70.50;;;;;;4993481;28;20034;-75
2022/07/20 11:58:52;;;;;;;13.00;7.78;;;31.90;70.90;;;;;;4993017;28;20034;-75
2022/07/20 12:01:31;;;;;;;14.65;7.70;;;31.90;69.60;;;;;;5003125;28;20077;-76
2022/07/20 12:03:59;;;;;;;12.40;7.65;;;31.90;68.80;;;;;;4995352;28;20129;-75
2022/07/20 12:06:28;;;;;;;15.25;8.07;;;31.90;68.50;;;;;;4995263;28;20073;-79
2022/07/20 12:09:18;;;;;;;11.40;7.32;;;31.90;68.10;;;;;;5001764;28;20037;-75
2022/07/20 12:12:08;;;;;;;13.60;7.60;;;31.90;69.10;;;;;;4998756;28;20030;-76
2022/07/20 12:14:41;;;;;;;10.13;7.00;;;32.00;67.50;;;;;;5002002;28;20077;-76
2022/07/20 12:17:15;;;;;;;11.25;6.88;;;32.10;67.40;;;;;;4993332;28;20042;-75
2022/07/20 12:19:40;;;;;;;;;;;32.20;68.10;;;;;;5014313;28;20037;-76
2022/07/20 12:22:06;;;;;;;10.35;6.80;;;32.30;66.00;;;;;;5000360;28;19972;-76
2022/07/20 12:24:53;;;;;;;12.18;6.72;;;32.30;66.80;;;;;;5010540;28;20038;-75
2022/07/20 12:27:19;;;;;;;11.32;7.28;;;32.60;66.20;;;;;;5009182;28;20403;-77
2022/07/20 12:29:45;;;;;;;15.57;7.07;;;32.60;67.00;;;;;;5004390;28;20042;-78
2022/07/20 12:32:11;;;;;;;11.98;7.47;;;32.70;66.80;;;;;;4996345;28;20092;-75
2022/07/20 12:34:50;;;;;;;11.60;7.82;;;32.60;67.10;;;;;;4994687;28;20499;-76
2022/07/20 12:37:15;;;;;;;11.40;7.82;;;32.70;66.70;;;;;;4997837;28;20046;-77
2022/07/20 12:39:53;;;;;;;12.63;7.93;;;32.80;66.30;;;;;;5009792;28;20045;-76
2022/07/20 12:42:24;;;;;;;8.95;7.65;;;32.90;66.60;;;;;;5004000;28;20025;-75
2022/07/20 12:45:07;;;;;;;12.73;8.73;;;33.00;66.30;;;;;;4999810;28;20086;-76
2022/07/20 12:47:33;;;;;;;12.57;8.48;;;33.20;64.00;;;;;;4994889;28;20057;-78